Time;durP1;ratioP1;P1;durP2;ratioP2;P2;SDS_P1;SDS_P2;PMS_P1;PMS_P2;Temp;Humidity;BMP_temperature;BMP_pressure;BME280_temperature;BME280_humidity;BME280_pressure;Samples;Min_cycle;Max_cycle;Signal;HPM_P1;HPM_P2
2020/12/29 00:00:18;;;;;;;31.95;19.27;;;;;;;2.51;79.10;98860.77;1765478;81;21150;-40
2020/12/29 00:02:51;;;;;;;32.00;19.55;;;;;;;2.57;78.93;98851.45;1765106;81;21151;-40
2020/12/29 00:05:20;;;;;;;36.20;20.77;;;;;;;2.57;79.00;98854.91;1744915;81;21048;-41
2020/12/29 00:07:54;;;;;;;33.10;19.27;;;;;;;2.57;79.01;98859.47;1765054;81;21036;-41
2020/12/29 00:10:23;;;;;;;25.68;16.37;;;;;;;2.56;79.01;98879.33;1765065;80;21131;-41
2020/12/29 00:12:52;;;;;;;31.43;19.57;;;;;;;2.66;78.79;98882.22;1765323;81;21174;-40
2020/12/29 00:15:20;;;;;;;32.10;20.08;;;;;;;2.66;78.80;98874.98;1765035;81;23438;-41
2020/12/29 00:17:49;;;;;;;31.17;19.77;;;;;;;2.66;78.83;98887.02;1764998;81;21151;-41
2020/12/29 00:20:17;;;;;;;28.07;18.05;;;;;;;2.68;78.82;98897.39;1765030;81;20984;-40
2020/12/29 00:22:45;;;;;;;32.40;18.42;;;;;;;2.75;78.53;98882.43;1774611;79;21143;-40
2020/12/29 00:25:18;;;;;;;31.15;18.45;;;;;;;2.76;78.46;98893.92;1782020;80;21169;-41
2020/12/29 00:27:46;;;;;;;30.68;18.82;;;;;;;2.72;78.44;98883.05;1782145;79;21373;-41
2020/12/29 00:30:14;;;;;;;27.67;17.20;;;;;;;2.71;78.39;98880.72;1781919;80;21173;-41
2020/12/29 00:32:43;;;;;;;24.45;16.00;;;;;;;2.77;78.20;98880.75;1782044;80;21083;-41
2020/12/29 00:35:11;;;;;;;26.57;17.27;;;;;;;2.81;77.96;98870.42;1781958;80;20984;-40
2020/12/29 00:37:40;;;;;;;27.07;16.87;;;;;;;2.79;77.99;98865.96;1782032;80;21126;-40
2020/12/29 00:40:08;;;;;;;23.73;15.48;;;;;;;2.78;78.02;98880.99;1781980;80;21175;-40
2020/12/29 00:42:36;;;;;;;25.27;16.42;;;;;;;2.83;77.91;98888.86;1782023;80;21142;-41
2020/12/29 00:45:05;;;;;;;27.52;16.37;;;;;;;2.86;77.75;98874.81;1781988;80;21173;-41
2020/12/29 00:47:33;;;;;;;30.10;18.10;;;;;;;2.84;77.80;98895.23;1799646;79;21094;-40
2020/12/29 00:50:02;;;;;;;27.07;17.05;;;;;;;2.83;77.87;98890.98;1814247;78;21613;-41
2020/12/29 00:52:30;;;;;;;27.80;17.57;;;;;;;2.85;77.85;98874.61;1814119;79;21330;-40
2020/12/29 00:55:02;;;;;;;26.40;16.62;;;;;;;2.90;77.67;98860.50;1814048;79;21039;-41
2020/12/29 00:57:38;;;;;;;28.32;18.65;;;;;;;2.92;77.64;98851.58;1812493;79;21158;-40
2020/12/29 01:00:06;;;;;;;32.35;18.10;;;;;;;2.80;77.72;98839.44;1814006;79;21138;-40
2020/12/29 01:02:36;;;;;;;26.33;16.73;;;;;;;2.80;77.88;98852.81;1813723;79;21150;-40
2020/12/29 01:05:22;;;;;;;28.17;21.10;;;;;;;2.83;77.91;98852.16;1793067;78;28038;-41
2020/12/29 01:07:51;;;;;;;31.37;19.77;;;;;;;3.17;77.04;98836.50;1784089;80;20964;-41
2020/12/29 01:10:20;;;;;;;27.13;17.77;;;;;;;3.31;76.39;98829.57;1784121;80;21142;-41
2020/12/29 01:13:07;;;;;;;29.72;18.40;;;;;;;3.15;76.70;98836.03;1749209;82;21043;-40
2020/12/29 01:15:39;;;;;;;26.97;17.87;;;;;;;3.08;76.92;98841.67;1749252;82;21079;-41
2020/12/29 01:18:07;;;;;;;26.75;17.70;;;;;;;3.02;77.10;98847.20;1749355;82;21738;-41
2020/12/29 01:20:36;;;;;;;26.40;17.15;;;;;;;2.96;77.27;98837.77;1749433;82;21621;-40
2020/12/29 01:23:04;;;;;;;30.45;18.95;;;;;;;2.91;77.49;98833.94;1749237;82;21373;-40
2020/12/29 01:25:34;;;;;;;23.95;15.50;;;;;;;2.96;77.44;98820.92;1749431;82;21008;-41
2020/12/29 01:28:02;;;;;;;29.07;19.55;;;;;;;2.99;77.28;98814.94;1749282;82;21012;-40
2020/12/29 01:30:31;;;;;;;28.30;17.42;;;;;;;2.91;77.49;98819.21;1749222;82;21119;-40
2020/12/29 01:32:59;;;;;;;30.12;18.25;;;;;;;2.87;77.65;98826.32;1749278;82;21106;-41
2020/12/29 01:35:27;;;;;;;31.77;20.62;;;;;;;2.89;77.62;98840.73;1749195;82;21282;-40
2020/12/29 01:37:56;;;;;;;31.52;19.15;;;;;;;2.94;77.43;98828.51;1749201;82;21055;-40
2020/12/29 01:40:24;;;;;;;34.03;21.82;;;;;;;2.89;77.56;98832.15;1749263;82;21068;-41
2020/12/29 01:42:52;;;;;;;34.92;20.08;;;;;;;2.83;77.69;98821.38;1749198;82;21043;-40
2020/12/29 01:45:21;;;;;;;30.55;19.40;;;;;;;2.84;77.66;98822.95;1749192;82;21190;-41
2020/12/29 01:47:50;;;;;;;31.05;19.73;;;;;;;2.85;77.58;98821.86;1748272;82;21366;-40
2020/12/29 01:50:21;;;;;;;31.42;20.45;;;;;;;2.84;77.67;98794.84;1780042;80;21030;-40
2020/12/29 01:53:01;;;;;;;28.30;18.65;;;;;;;2.81;77.81;98806.19;1780081;80;21150;-41
2020/12/29 01:55:30;;;;;;;26.97;17.27;;;;;;;2.82;77.76;98793.03;1747662;82;21170;-41
2020/12/29 01:58:01;;;;;;;31.15;19.70;;;;;;;2.88;77.62;98790.97;1780083;80;21154;-41
2020/12/29 02:00:30;;;;;;;29.77;17.98;;;;;;;2.92;77.54;98807.40;1747785;82;21378;-40
2020/12/29 02:02:59;;;;;;;29.45;19.32;;;;;;;2.92;77.60;98794.02;1780104;80;21178;-41
2020/12/29 02:05:27;;;;;;;26.10;17.75;;;;;;;2.90;77.56;98801.60;1747717;82;21179;-41
2020/12/29 02:07:57;;;;;;;30.02;18.20;;;;;;;2.93;77.46;98802.28;1816154;79;21162;-41
2020/12/29 02:10:26;;;;;;;24.92;16.62;;;;;;;2.96;77.40;98797.61;1816203;78;21095;-40
2020/12/29 02:12:56;;;;;;;28.60;19.45;;;;;;;2.97;77.32;98793.83;1816215;79;21267;-41
2020/12/29 02:15:24;;;;;;;;;;;;;;;2.93;77.37;98792.91;1818579;78;21565;-40
2020/12/29 02:17:52;;;;;;;27.15;17.07;;;;;;;2.86;77.44;98779.78;1815658;79;20541;-40
2020/12/29 02:20:20;;;;;;;23.50;15.63;;;;;;;2.82;77.67;98776.19;1815566;79;21130;-40
2020/12/29 02:22:49;;;;;;;25.92;17.90;;;;;;;2.88;77.53;98785.06;1815630;79;21162;-40
2020/12/29 02:25:17;;;;;;;27.95;18.42;;;;;;;2.85;77.60;98776.34;1815582;78;21367;-40
2020/12/29 02:27:48;;;;;;;25.82;17.10;;;;;;;2.83;77.66;98773.20;1815610;79;21035;-41
2020/12/29 02:30:17;;;;;;;26.05;16.70;;;;;;;2.81;77.72;98771.38;1815584;79;21146;-41
2020/12/29 02:32:46;;;;;;;20.35;13.38;;;;;;;2.82;77.72;98763.59;1815710;79;21405;-40
2020/12/29 02:35:18;;;;;;;28.15;18.67;;;;;;;2.81;77.81;98768.70;1815582;79;21142;-40
2020/12/29 02:37:46;;;;;;;24.12;17.40;;;;;;;2.80;77.83;98767.16;1815661;79;21190;-40
2020/12/29 02:40:14;;;;;;;21.68;15.65;;;;;;;2.81;77.84;98774.06;1815516;78;21158;-41
2020/12/29 02:42:42;;;;;;;25.20;17.73;;;;;;;2.83;77.74;98779.10;1815634;79;21180;-40
2020/12/29 02:45:11;;;;;;;27.67;17.73;;;;;;;2.82;77.83;98787.68;1815535;78;21030;-40
2020/12/29 02:47:40;;;;;;;28.23;18.70;;;;;;;2.82;77.88;98777.53;1819285;78;21138;-41
2020/12/29 02:50:08;;;;;;;27.75;16.95;;;;;;;2.85;77.76;98776.90;1821630;78;21423;-41
2020/12/29 02:52:37;;;;;;;25.17;17.20;;;;;;;2.91;77.57;98783.62;1821976;78;21197;-40
2020/12/29 02:55:07;;;;;;;24.23;16.15;;;;;;;2.95;77.56;98781.31;1821692;78;21035;-40
2020/12/29 02:57:36;;;;;;;27.48;17.45;;;;;;;2.93;77.50;98777.41;1821719;78;21043;-41
2020/12/29 03:00:06;;;;;;;26.73;17.67;;;;;;;2.90;77.55;98780.19;1821617;78;21158;-40
2020/12/29 03:02:35;;;;;;;22.73;15.68;;;;;;;2.93;77.45;98771.50;1821657;78;21187;-41
2020/12/29 03:05:03;;;;;;;23.65;16.50;;;;;;;3.03;77.23;98767.11;1821463;78;21190;-41
2020/12/29 03:07:32;;;;;;;24.80;17.30;;;;;;;3.03;77.11;98763.09;1821576;78;21161;-41
2020/12/29 03:10:00;;;;;;;27.10;17.30;;;;;;;3.00;77.07;98765.64;1821621;78;20996;-41
2020/12/29 03:12:30;;;;;;;;;;;;;;;2.94;77.18;98763.70;1824414;78;20991;-41
2020/12/29 03:14:58;;;;;;;26.25;16.27;;;;;;;2.88;77.26;98766.32;1821746;78;21190;-40
2020/12/29 03:17:27;;;;;;;24.70;16.97;;;;;;;2.89;77.33;98767.90;1821527;78;21015;-41
2020/12/29 03:19:55;;;;;;;24.72;16.40;;;;;;;2.87;77.30;98754.04;1821622;78;21170;-41
2020/12/29 03:22:24;;;;;;;27.73;17.07;;;;;;;2.82;77.45;98769.50;1821525;78;21134;-41
2020/12/29 03:24:52;;;;;;;23.42;15.80;;;;;;;2.78;77.57;98800.14;1821700;78;21138;-41
2020/12/29 03:27:20;;;;;;;22.27;15.10;;;;;;;2.77;77.59;98799.11;1821557;78;21325;-40
2020/12/29 03:29:49;;;;;;;24.25;16.70;;;;;;;2.79;77.58;98776.84;1815713;78;21007;-41
2020/12/29 03:32:17;;;;;;;27.62;17.95;;;;;;;2.81;77.66;98753.98;1821539;78;21124;-41
2020/12/29 03:34:45;;;;;;;23.32;15.43;;;;;;;2.80;77.59;98741.73;1821655;78;20964;-40
2020/12/29 03:37:14;;;;;;;19.90;13.88;;;;;;;2.77;77.58;98749.05;1821570;78;21170;-40
2020/12/29 03:39:42;;;;;;;21.42;14.10;;;;;;;2.81;77.56;98749.97;1821591;78;21513;-41
2020/12/29 03:42:10;;;;;;;23.73;15.35;;;;;;;2.86;77.40;98758.37;1821554;78;21133;-41
2020/12/29 03:44:40;;;;;;;;;;;;;;;2.84;77.42;98757.38;1824202;78;21020;-41
2020/12/29 03:47:08;;;;;;;21.37;14.20;;;;;;;2.84;77.41;98749.34;1819156;78;20279;-41
2020/12/29 03:49:37;;;;;;;18.62;13.03;;;;;;;2.77;77.64;98746.38;1815630;79;21190;-40
2020/12/29 03:52:05;;;;;;;19.92;13.58;;;;;;;2.82;77.58;98738.71;1815424;78;21353;-40
2020/12/29 03:54:34;;;;;;;20.75;14.33;;;;;;;2.83;77.50;98734.38;1815562;79;21162;-41
2020/12/29 03:57:02;;;;;;;19.85;13.78;;;;;;;2.77;77.60;98727.63;1815509;78;21159;-41
2020/12/29 03:59:31;;;;;;;18.37;12.95;;;;;;;2.77;77.68;98716.93;1815443;79;21461;-41
2020/12/29 04:01:59;;;;;;;19.15;13.20;;;;;;;2.83;77.59;98711.63;1815711;78;21170;-40
2020/12/29 04:04:27;;;;;;;19.57;13.55;;;;;;;2.82;77.59;98703.91;1811806;78;21359;-41
2020/12/29 04:06:56;;;;;;;19.37;12.93;;;;;;;2.78;77.66;98709.14;1796911;79;21143;-41
2020/12/29 04:09:28;;;;;;;16.45;11.90;;;;;;;2.74;77.83;98693.50;1797075;79;21170;-40
2020/12/29 04:11:57;;;;;;;14.65;11.30;;;;;;;2.75;77.91;98709.80;1797084;79;21044;-41
2020/12/29 04:14:25;;;;;;;14.15;10.35;;;;;;;2.80;77.73;98689.53;1797003;79;21103;-41
2020/12/29 04:16:55;;;;;;;18.10;12.65;;;;;;;2.82;77.79;98699.90;1797092;79;21445;-40
2020/12/29 04:19:23;;;;;;;;;;;;;;;2.80;77.83;98690.87;1799787;79;22128;-41
2020/12/29 04:21:51;;;;;;;16.73;11.35;;;;;;;2.75;77.93;98696.41;1797020;79;20110;-40
2020/12/29 04:24:20;;;;;;;16.85;12.33;;;;;;;2.70;78.10;98676.53;1796980;79;21147;-40
2020/12/29 04:26:48;;;;;;;21.00;12.28;;;;;;;2.75;78.02;98680.35;1796758;79;21147;-41
2020/12/29 04:29:17;;;;;;;18.50;12.73;;;;;;;2.73;78.09;98687.91;1749908;82;23604;-40
2020/12/29 04:31:47;;;;;;;17.52;11.83;;;;;;;2.70;78.23;98692.58;1749945;82;21039;-40
2020/12/29 04:34:15;;;;;;;19.15;12.37;;;;;;;2.74;78.19;98696.17;1749845;82;21130;-41
2020/12/29 04:36:44;;;;;;;18.17;12.47;;;;;;;2.80;78.06;98682.84;1749969;82;21192;-40
2020/12/29 04:39:12;;;;;;;18.80;12.98;;;;;;;2.78;77.98;98686.39;1749935;82;21138;-40
2020/12/29 04:41:40;;;;;;;20.10;13.10;;;;;;;2.74;78.13;98691.38;1749871;82;21186;-41
2020/12/29 04:44:09;;;;;;;16.85;11.60;;;;;;;2.71;78.29;98674.05;1749833;82;21043;-41
2020/12/29 04:46:38;;;;;;;19.52;12.78;;;;;;;2.77;78.17;98687.48;1771467;79;21590;-40
2020/12/29 04:49:06;;;;;;;21.52;13.35;;;;;;;2.81;78.08;98685.73;1771564;79;21135;-40
2020/12/29 04:51:35;;;;;;;18.55;12.47;;;;;;;2.78;78.19;98687.73;1802426;79;21174;-41
2020/12/29 04:54:06;;;;;;;18.75;13.53;;;;;;;2.74;78.32;98694.84;1802433;79;21234;-40
2020/12/29 04:56:35;;;;;;;22.13;13.90;;;;;;;2.72;78.47;98700.27;1802464;79;21146;-41
2020/12/29 04:59:04;;;;;;;18.85;12.60;;;;;;;2.74;78.55;98686.02;1802397;79;21032;-40
2020/12/29 05:04:14;;;;;;;19.27;12.37;;;;;;;2.72;78.67;98689.56;1831574;78;22722;-41
2020/12/29 05:06:43;;;;;;;19.15;13.43;;;;;;;2.73;78.57;98691.14;1735398;82;21032;-41
2020/12/29 05:09:12;;;;;;;21.10;13.60;;;;;;;2.75;78.60;98688.38;1765813;81;22250;-40
2020/12/29 05:11:40;;;;;;;18.07;12.58;;;;;;;2.76;78.48;98687.25;1735244;82;21020;-40
2020/12/29 05:14:08;;;;;;;17.70;12.37;;;;;;;2.74;78.50;98692.16;1735364;82;20997;-41
2020/12/29 05:16:38;;;;;;;18.92;12.63;;;;;;;2.75;78.55;98678.23;1735378;82;21618;-40
2020/12/29 05:19:10;;;;;;;20.37;13.30;;;;;;;2.77;78.55;98686.70;1735486;82;21056;-41
2020/12/29 05:21:39;;;;;;;19.95;13.22;;;;;;;2.76;78.62;98703.31;1735289;82;23521;-41
2020/12/29 05:24:21;;;;;;;21.95;13.18;;;;;;;2.73;78.78;98698.61;1735332;82;21424;-41
2020/12/29 05:26:53;;;;;;;15.63;11.08;;;;;;;2.72;78.74;98695.70;1735377;82;21578;-41
2020/12/29 05:29:23;;;;;;;21.70;12.80;;;;;;;2.75;78.62;98699.64;1735372;82;21028;-41
2020/12/29 05:31:51;;;;;;;23.38;13.30;;;;;;;2.78;78.54;98682.37;1735429;82;21127;-41
2020/12/29 05:34:25;;;;;;;22.95;12.93;;;;;;;2.74;78.65;98670.75;1735240;82;21384;-40
2020/12/29 05:36:55;;;;;;;19.65;12.58;;;;;;;2.65;78.77;98675.37;1735263;82;21140;-41
2020/12/29 05:39:25;;;;;;;19.23;11.20;;;;;;;2.66;78.96;98678.84;1735476;82;21060;-41
2020/12/29 05:41:55;;;;;;;19.23;13.15;;;;;;;2.68;78.77;98673.38;1735451;82;21575;-41
2020/12/29 05:44:30;;;;;;;18.27;12.33;;;;;;;2.61;78.96;98659.16;1735271;82;22129;-41
2020/12/29 05:46:59;;;;;;;17.85;11.70;;;;;;;2.58;79.02;98659.03;1736553;82;21377;-41
2020/12/29 05:49:28;;;;;;;23.32;12.60;;;;;;;2.56;79.06;98667.95;1739698;82;28759;-41
2020/12/29 05:51:57;;;;;;;23.18;13.55;;;;;;;2.49;79.34;98670.33;1713685;83;21158;-40
2020/12/29 05:54:27;;;;;;;19.20;11.83;;;;;;;2.47;79.48;98675.23;1708866;83;21616;-41
2020/12/29 05:56:55;;;;;;;16.52;11.43;;;;;;;2.52;79.46;98669.67;1739624;82;21158;-40
2020/12/29 05:59:24;;;;;;;25.12;13.95;;;;;;;2.56;79.35;98672.75;1713717;83;21373;-40
2020/12/29 06:01:53;;;;;;;27.42;14.13;;;;;;;2.56;79.30;98659.37;1713786;83;21151;-40
2020/12/29 06:04:21;;;;;;;21.48;13.45;;;;;;;2.54;79.26;98662.13;1742308;82;21157;-40
2020/12/29 06:06:50;;;;;;;30.32;13.05;;;;;;;2.56;79.15;98667.95;1711540;83;21288;-41
2020/12/29 06:09:20;;;;;;;24.65;13.75;;;;;;;2.25;79.06;98608.63;1724000;83;21178;-40
2020/12/29 06:11:55;;;;;;;25.23;14.25;;;;;;;2.55;79.10;98663.70;1724088;83;21359;-41
2020/12/29 06:14:25;;;;;;;21.60;12.60;;;;;;;2.49;79.22;98675.69;1723773;83;20988;-40
2020/12/29 06:16:55;;;;;;;13.70;9.30;;;;;;;2.45;79.38;98674.77;1723613;83;21142;-41
2020/12/29 06:19:27;;;;;;;22.67;13.05;;;;;;;2.48;79.29;98676.78;1723577;82;21138;-41
2020/12/29 06:22:11;;;;;;;22.42;12.25;;;;;;;2.44;79.47;98665.16;1723467;83;21161;-41
2020/12/29 06:24:47;;;;;;;16.93;11.78;;;;;;;2.40;79.55;98661.57;1723622;82;21203;-40
2020/12/29 06:27:15;;;;;;;20.32;13.00;;;;;;;2.40;79.66;98666.92;1723484;83;21195;-40
2020/12/29 06:29:44;;;;;;;24.43;13.75;;;;;;;2.44;79.64;98668.63;1723505;83;21150;-40
2020/12/29 06:32:19;;;;;;;14.50;8.90;;;;;;;2.44;79.64;98682.55;1723705;83;21132;-40
2020/12/29 06:34:48;;;;;;;17.62;11.85;;;;;;;2.46;79.54;98684.37;1723966;81;21690;-41
2020/12/29 06:39:31;;;;;;;18.15;11.97;;;;;;;2.51;79.46;98684.19;1809469;78;22664;-41
2020/12/29 06:42:00;;;;;;;18.27;11.35;;;;;;;2.37;79.72;98684.96;1784290;80;21589;-40
2020/12/29 06:44:34;;;;;;;19.92;11.75;;;;;;;2.37;79.82;98678.28;1749278;82;21295;-40
2020/12/29 06:47:09;;;;;;;21.35;11.45;;;;;;;2.42;79.70;98679.44;1748850;82;21697;-41
2020/12/29 06:49:47;;;;;;;15.20;10.08;;;;;;;2.43;79.76;98663.59;1808280;78;22741;-41
2020/12/29 06:52:27;;;;;;;16.60;11.60;;;;;;;2.37;79.80;98674.27;1784053;80;21015;-41
2020/12/29 06:55:00;;;;;;;15.58;10.50;;;;;;;2.39;79.82;98664.80;1720225;82;22287;-40
2020/12/29 06:57:42;;;;;;;16.07;10.05;;;;;;;2.40;79.86;98648.98;1749135;82;21059;-40
2020/12/29 07:00:16;;;;;;;12.15;8.60;;;;;;;2.39;79.95;98650.64;1749361;82;21045;-40
2020/12/29 07:02:50;;;;;;;12.63;8.90;;;;;;;2.37;80.09;98644.84;1719556;83;21652;-40
2020/12/29 07:05:29;;;;;;;15.80;9.90;;;;;;;2.46;79.88;98638.89;1749279;82;21016;-41
2020/12/29 07:08:00;;;;;;;;;;;;;;;2.43;80.00;98639.52;1719837;83;21383;-40
2020/12/29 07:10:41;;;;;;;11.95;8.05;;;;;;;2.42;80.09;98649.42;1749430;82;20624;-41
2020/12/29 07:13:15;;;;;;;13.10;9.28;;;;;;;2.46;79.98;98645.58;1719571;83;21170;-41
2020/12/29 07:15:51;;;;;;;14.25;9.68;;;;;;;2.53;79.88;98660.00;1749354;82;21552;-41
2020/12/29 07:18:28;;;;;;;13.53;9.35;;;;;;;2.53;79.79;98657.88;1717985;82;21132;-40
2020/12/29 07:20:58;;;;;;;13.22;8.10;;;;;;;2.53;79.75;98653.31;1725656;82;21444;-40
2020/12/29 07:23:28;;;;;;;10.43;7.87;;;;;;;2.59;79.64;98653.91;1725696;83;21159;-41
2020/12/29 07:25:59;;;;;;;15.75;10.05;;;;;;;2.63;79.61;98655.62;1725780;83;21637;-41
2020/12/29 07:28:29;;;;;;;12.78;9.08;;;;;;;2.62;79.77;98642.55;1725627;83;21067;-41
2020/12/29 07:30:57;;;;;;;13.38;9.10;;;;;;;2.64;79.67;98659.08;1725841;83;21161;-41
2020/12/29 07:33:27;;;;;;;9.08;6.80;;;;;;;2.73;79.50;98647.77;1725680;83;22138;-41
2020/12/29 07:35:55;;;;;;;12.20;8.15;;;;;;;2.78;79.28;98653.48;1725622;83;21170;-41
2020/12/29 07:38:26;;;;;;;13.15;8.78;;;;;;;2.77;79.35;98641.98;1725547;83;21115;-41
2020/12/29 07:40:54;;;;;;;9.53;7.08;;;;;;;2.77;79.30;98631.28;1725630;83;21047;-40
2020/12/29 07:43:22;;;;;;;12.93;8.25;;;;;;;2.81;79.24;98631.44;1725654;83;21147;-41
2020/12/29 07:45:50;;;;;;;9.78;7.70;;;;;;;2.81;79.29;98627.42;1725581;83;21300;-41
2020/12/29 07:48:19;;;;;;;12.43;6.85;;;;;;;2.80;79.47;98624.51;1744058;81;21138;-41
2020/12/29 07:50:47;;;;;;;10.30;7.20;;;;;;;2.79;79.54;98620.26;1724445;83;21036;-41
2020/12/29 07:53:15;;;;;;;13.43;8.28;;;;;;;2.85;79.59;98613.06;1669102;83;21031;-41
2020/12/29 07:55:45;;;;;;;11.08;7.60;;;;;;;2.90;79.54;98616.88;1724397;83;21448;-41
2020/12/29 07:58:14;;;;;;;11.38;6.95;;;;;;;2.89;79.58;98631.37;1692965;83;21475;-41
2020/12/29 08:00:44;;;;;;;10.23;6.97;;;;;;;2.92;79.46;98629.92;1723781;83;21172;-41
2020/12/29 08:03:13;;;;;;;10.70;7.70;;;;;;;2.97;79.32;98638.54;1723925;83;21028;-41
2020/12/29 08:05:42;;;;;;;8.43;5.67;;;;;;;2.98;79.28;98624.05;1724069;83;21856;-41
2020/12/29 08:08:10;;;;;;;10.13;6.85;;;;;;;2.95;79.38;98616.66;1723713;83;21159;-41
2020/12/29 08:10:42;;;;;;;10.13;7.05;;;;;;;2.96;79.32;98614.77;1723826;83;21185;-41
2020/12/29 08:13:14;;;;;;;12.35;8.55;;;;;;;2.99;79.24;98609.56;1723883;83;21182;-41
2020/12/29 08:15:48;;;;;;;11.10;8.10;;;;;;;3.01;79.16;98601.97;1692296;83;21126;-41
2020/12/29 08:18:20;;;;;;;10.50;7.17;;;;;;;2.93;79.29;98596.14;1723674;83;21190;-41
2020/12/29 08:20:58;;;;;;;11.40;7.50;;;;;;;2.90;79.54;98605.38;1723928;83;21715;-41
2020/12/29 08:23:28;;;;;;;10.95;8.20;;;;;;;2.98;79.50;98585.78;1723702;83;21375;-41
2020/12/29 08:25:58;;;;;;;9.75;7.00;;;;;;;2.97;79.60;98578.85;1723865;83;21083;-41
2020/12/29 08:28:28;;;;;;;9.93;7.15;;;;;;;2.97;79.73;98582.31;1723966;83;21678;-41
2020/12/29 08:30:57;;;;;;;10.43;7.80;;;;;;;3.04;79.68;98576.44;1723884;83;21174;-41
2020/12/29 08:33:26;;;;;;;11.75;7.95;;;;;;;3.12;79.64;98556.05;1723963;83;21830;-42
2020/12/29 08:36:03;;;;;;;10.80;7.15;;;;;;;3.11;79.69;98556.59;1723726;83;21286;-41
2020/12/29 08:38:43;;;;;;;9.93;7.85;;;;;;;3.12;79.57;98553.36;1723706;83;21259;-41
2020/12/29 08:41:19;;;;;;;9.98;7.05;;;;;;;3.17;79.48;98552.61;1723966;83;21122;-41
2020/12/29 08:43:49;;;;;;;11.80;8.25;;;;;;;3.18;79.43;98575.60;1720278;83;21206;-41
2020/12/29 08:46:21;;;;;;;;;;;;;;;3.15;79.50;98557.50;1726378;83;21139;-41
2020/12/29 08:48:57;;;;;;;10.55;7.20;;;;;;;3.17;79.50;98571.91;1729937;81;21377;-41
2020/12/29 08:51:32;;;;;;;10.88;7.65;;;;;;;3.14;79.48;98551.16;1744593;82;21040;-41
2020/12/29 08:54:19;;;;;;;9.13;6.90;;;;;;;3.14;79.50;98550.59;1744777;82;21154;-41
2020/12/29 08:56:47;;;;;;;12.00;7.28;;;;;;;3.14;79.54;98550.59;1744666;82;21039;-41
2020/12/29 08:59:22;;;;;;;10.80;7.62;;;;;;;3.17;79.45;98529.05;1744627;82;21123;-41
2020/12/29 09:01:56;;;;;;;11.45;8.10;;;;;;;3.22;79.29;98541.69;1744768;82;21174;-41
2020/12/29 09:04:36;;;;;;;9.25;7.08;;;;;;;3.19;79.35;98525.50;1744620;82;21167;-41
2020/12/29 09:07:13;;;;;;;8.65;6.30;;;;;;;3.20;79.33;98523.81;1744719;82;21060;-41
2020/12/29 09:09:57;;;;;;;8.78;6.33;;;;;;;3.22;79.28;98518.13;1744676;82;21048;-41
2020/12/29 09:12:29;;;;;;;9.18;6.58;;;;;;;3.20;79.14;98527.05;1744622;82;21111;-41
2020/12/29 09:15:08;;;;;;;8.88;6.40;;;;;;;3.16;79.34;98508.73;1744838;82;22136;-41
2020/12/29 09:17:43;;;;;;;8.13;6.27;;;;;;;3.19;79.29;98512.11;1744924;82;21174;-41
2020/12/29 09:20:19;;;;;;;10.48;7.28;;;;;;;3.22;79.23;98513.56;1744689;82;21196;-41
2020/12/29 09:23:04;;;;;;;7.92;5.58;;;;;;;3.22;79.27;98491.35;1744826;82;21626;-41
2020/12/29 09:25:42;;;;;;;8.65;6.30;;;;;;;3.25;79.05;98504.06;1740194;82;21170;-41
2020/12/29 09:28:24;;;;;;;8.35;5.97;;;;;;;3.25;79.03;98488.00;1744404;82;23352;-41
2020/12/29 09:31:05;;;;;;;8.68;6.22;;;;;;;3.25;79.05;98500.05;1744630;82;21146;-41
2020/12/29 09:33:34;;;;;;;7.62;5.45;;;;;;;3.22;79.18;98494.03;1744616;82;21110;-41
2020/12/29 09:36:03;;;;;;;8.50;6.17;;;;;;;3.26;79.23;98482.31;1744797;82;21166;-43
2020/12/29 09:38:33;;;;;;;;;;;;;;;3.34;79.17;98468.03;1747339;82;21151;-41
2020/12/29 09:41:03;;;;;;;9.58;6.00;;;;;;;3.30;79.22;98477.07;1744678;82;21209;-41
2020/12/29 09:43:34;;;;;;;7.50;5.28;;;;;;;3.20;79.60;98466.78;1744727;82;21629;-41
2020/12/29 09:46:03;;;;;;;7.60;5.95;;;;;;;3.25;79.60;98462.55;1744655;82;21174;-41
2020/12/29 09:48:32;;;;;;;8.23;6.30;;;;;;;3.30;79.54;98464.46;1744806;82;21700;-42
2020/12/29 09:51:00;;;;;;;7.33;5.17;;;;;;;3.32;79.59;98455.55;1744755;82;21187;-41
2020/12/29 09:53:28;;;;;;;7.08;5.37;;;;;;;3.36;79.53;98471.73;1744581;82;21669;-41
2020/12/29 09:55:57;;;;;;;7.85;5.20;;;;;;;3.44;79.40;98445.38;1744618;82;21182;-41
2020/12/29 09:58:26;;;;;;;7.80;6.12;;;;;;;3.49;79.40;98461.23;1744580;82;21186;-41
2020/12/29 10:00:54;;;;;;;7.50;5.80;;;;;;;3.50;79.39;98456.11;1744633;82;21183;-41
2020/12/29 10:03:23;;;;;;;6.70;4.80;;;;;;;3.52;79.48;98457.12;1744703;82;21593;-41
2020/12/29 10:05:51;;;;;;;8.03;5.35;;;;;;;3.59;79.43;98467.50;1744712;82;21368;-41
2020/12/29 10:08:20;;;;;;;6.62;5.00;;;;;;;3.63;79.39;98446.95;1744531;82;21454;-41
2020/12/29 10:10:48;;;;;;;7.22;5.15;;;;;;;3.66;79.28;98454.33;1744591;82;21075;-41
2020/12/29 10:13:18;;;;;;;5.80;4.75;;;;;;;3.68;79.15;98453.42;1744718;82;21203;-41
2020/12/29 10:15:48;;;;;;;6.50;5.20;;;;;;;3.76;79.02;98449.87;1744257;82;21162;-41
2020/12/29 10:18:16;;;;;;;6.92;5.25;;;;;;;3.77;78.87;98439.92;1744558;82;21227;-41
2020/12/29 10:20:45;;;;;;;8.13;6.00;;;;;;;3.73;78.85;98437.11;1744860;82;21500;-41
2020/12/29 10:23:14;;;;;;;5.90;4.65;;;;;;;3.73;79.13;98444.38;1744599;82;21869;-41
2020/12/29 10:25:44;;;;;;;7.70;5.45;;;;;;;3.78;79.05;98442.25;1744588;82;21049;-41
2020/12/29 10:28:13;;;;;;;8.83;6.03;;;;;;;3.87;78.85;98432.77;1744757;82;21586;-41
2020/12/29 10:30:41;;;;;;;8.85;6.03;;;;;;;3.88;78.84;98432.97;1744596;82;21434;-41
2020/12/29 10:33:09;;;;;;;8.63;5.00;;;;;;;3.85;78.88;98425.05;1744627;82;21151;-41
2020/12/29 10:35:38;;;;;;;8.43;5.75;;;;;;;3.83;79.11;98431.30;1744655;82;21202;-41
2020/12/29 10:38:07;;;;;;;7.85;5.42;;;;;;;3.90;79.09;98444.94;1744683;82;21885;-41
2020/12/29 10:40:35;;;;;;;8.13;5.70;;;;;;;3.90;79.20;98441.47;1723095;82;21158;-41
2020/12/29 10:43:05;;;;;;;6.53;5.58;;;;;;;3.84;79.25;98423.48;1709999;83;21215;-41
2020/12/29 10:45:33;;;;;;;7.58;5.62;;;;;;;3.87;79.21;98424.72;1714799;83;21150;-41
2020/12/29 10:48:02;;;;;;;7.75;5.85;;;;;;;3.98;79.01;98424.46;1724328;81;21140;-41
2020/12/29 10:50:30;;;;;;;9.58;6.53;;;;;;;3.94;78.97;98432.41;1727254;82;21080;-41
2020/12/29 10:52:58;;;;;;;8.10;5.70;;;;;;;3.92;79.04;98426.59;1727176;82;21171;-41
2020/12/29 10:55:28;;;;;;;;;;;;;;;3.92;79.07;98415.86;1729866;83;21259;-41
2020/12/29 10:57:56;;;;;;;9.23;5.67;;;;;;;3.97;79.08;98436.30;1730309;82;20201;-41
2020/12/29 11:00:26;;;;;;;;;;;;;;;3.84;79.43;98420.80;1771293;81;21583;-41
2020/12/29 11:02:55;;;;;;;8.55;5.80;;;;;;;3.83;79.52;98423.26;1768497;81;20259;-41
2020/12/29 11:05:24;;;;;;;8.60;5.78;;;;;;;3.80;79.78;98413.22;1768466;81;21171;-41
2020/12/29 11:07:52;;;;;;;8.60;6.05;;;;;;;3.88;79.63;98409.63;1768507;81;21194;-41
2020/12/29 11:10:21;;;;;;;9.23;6.60;;;;;;;3.90;79.60;98403.93;1768432;81;21151;-41
2020/12/29 11:12:49;;;;;;;9.50;5.33;;;;;;;3.87;79.79;98397.91;1768530;81;21144;-41
2020/12/29 11:15:17;;;;;;;10.15;6.17;;;;;;;3.91;79.74;98388.86;1768445;81;21155;-41
2020/12/29 11:17:46;;;;;;;8.73;6.05;;;;;;;4.01;79.62;98380.11;1768562;81;21095;-41
2020/12/29 11:20:14;;;;;;;8.65;6.10;;;;;;;4.02;79.71;98393.75;1768505;81;21204;-41
2020/12/29 11:22:44;;;;;;;8.60;5.87;;;;;;;4.02;79.72;98411.18;1768431;81;21051;-41
2020/12/29 11:25:12;;;;;;;9.90;6.25;;;;;;;4.03;79.82;98406.02;1768635;81;21013;-41
2020/12/29 11:27:41;;;;;;;9.20;6.05;;;;;;;4.13;79.61;98425.66;1768482;81;21199;-41
2020/12/29 11:30:09;;;;;;;10.08;6.55;;;;;;;4.16;79.59;98427.68;1768550;81;21128;-41
2020/12/29 11:32:38;;;;;;;9.00;5.50;;;;;;;4.16;79.54;98412.38;1768510;81;21277;-41
2020/12/29 11:35:07;;;;;;;7.40;4.87;;;;;;;4.21;79.42;98411.35;1768717;81;21159;-41
2020/12/29 11:37:37;;;;;;;7.80;5.65;;;;;;;4.28;79.24;98399.46;1768763;81;21458;-41
2020/12/29 11:40:05;;;;;;;8.68;6.12;;;;;;;4.28;79.15;98410.98;1768656;81;21163;-41
2020/12/29 11:42:37;;;;;;;7.58;5.95;;;;;;;4.24;79.23;98402.05;1768769;81;21143;-41
2020/12/29 11:45:06;;;;;;;8.28;6.05;;;;;;;4.24;79.34;98416.02;1768663;81;21382;-41
2020/12/29 11:47:37;;;;;;;9.20;5.95;;;;;;;4.32;79.24;98417.78;1759806;81;21152;-42
2020/12/29 11:50:05;;;;;;;10.10;7.20;;;;;;;4.35;79.11;98419.80;1753398;81;21143;-42
2020/12/29 11:52:33;;;;;;;10.08;7.30;;;;;;;4.33;79.20;98418.78;1753395;81;21109;-42